Terminal Aerodrome Forecast
Issued by NWS

Home | Current Version | Previous Version | Text Only | Print | Product List | Glossary On
Versions: 1 2 3 4 5 6 7 8 9 10 11 12 13 14 15 16 17 18 19 20
000
FTUS44 KLZK 281400 AAA
TAFADF
TAF AMD
KADF 281414Z 2814/2912 00000KT P6SM SCT004
     FM281500 16004KT P6SM SCT020 BKN250
     FM281800 16008KT P6SM VCTS SCT030CB SCT100 BKN250=

USA.gov is the U.S. government's official web portal to all federal, state and local government web resources and services.